Weather Models
Both GFS & NAM
00z 06z 12z 18z
24hr Precip
00z 06z 12z 18z
36hr Simulated radar
00z 06z 12z 18z
SKEWT Soundings
00z 12z
Current Conditions (Updated 6:35am on 11/20/17)
Temperature
 40°
-0.23
42°  
40°  
0
10
20
30
40
50
60
70
80
90
100
Dew Point
21°
23°  
21°  
-20
-10
0
10
20
30
40
50
60
70
80
Wind Chill
33°
38°  
33°  
-20
-10
0
10
20
30
40
50
60
70
80
Wind Chill
Humidity
47%
47% 
46% 
0
10
20
30
40
50
60
70
80
90
100
Barometer
30.07
   Rising
30.07  
29.90  
28.00
28.30
28.60
28.90
29.20
29.50
29.80
30.10
30.40
30.70
31.00
Temperature
Dew Point
Humidity
Pressure
Wind
10mph
WSW
Daily Rain
.00
.05
.10
.15
.20
.25
.30
.35
.40
.45
.50
Rain Today
 0.00" 
Month Rain
0.00
0.20
0.40
0.60
0.80
1.00
1.20
1.40
1.60
1.80
2.00
Month Rain
 1.33" 
Year Rain
0.00
5.00
10.00
15.00
20.00
25.00
30.00
35.00
40.00
45.00
50.00
Year Rain
 37.65" 
Sun & Moon Data
Sunrise 6:52am
Sunset 4:41pm
Moonrise 8:32am
Moonset 6:35pm
Moon % 1%
Other Rain Data
Past Hour 0.00 Past 24 Hours 0.00
Past 3 Hours 0.00 Past 7 Days 0.72
Past 6 Hours 0.00
Cloud Height
4638


Current Front Map
Current Satellite map
7 Day Forecast
NWS Forecast for Philadelphia PA
National Weather Service Forecast for: Philadelphia PA
Issued by: National Weather Service Philadelphia, PA
Updated: 3:38 am EST Nov 20, 2017

Philadelphia
 
Today

Today: Sunny, with a high near 47. West wind 8 to 11 mph, with gusts as high as 25 mph.
Sunny
Tonight

Tonight: Mostly clear, with a low around 37. Southwest wind around 7 mph.
Mostly Clear
Tuesday

Tuesday: Sunny, with a high near 57. Southwest wind 6 to 14 mph.
Sunny
Tuesday
Night
Tuesday Night: A chance of rain, mainly after 1am.  Mostly cloudy, with a low around 45. Southwest wind 7 to 11 mph.  Chance of precipitation is 40%. New precipitation amounts of less than a tenth of an inch possible.
Chance Rain
Wednesday

Wednesday: A slight chance of rain before 1pm.  Mostly sunny, with a high near 52. Northwest wind 7 to 13 mph.  Chance of precipitation is 20%.
Slight Chance
Rain
Wednesday
Night
Wednesday Night: Mostly clear, with a low around 31.
Mostly Clear
Thanksgiving
Day
Thanksgiving Day: Mostly sunny, with a high near 46.
Mostly Sunny
Thursday
Night
Thursday Night: Partly cloudy, with a low around 32.
Partly Cloudy
Friday

Friday: Sunny, with a high near 49.
Sunny
Hi 47 °F Lo 37 °F Hi 57 °F Lo 45 °F Hi 52 °F Lo 31 °F Hi 46 °F Lo 32 °F Hi 49 °F

 

Today
 
Sunny, with a high near 47. West wind 8 to 11 mph, with gusts as high as 25 mph.
Tonight
 
Mostly clear, with a low around 37. Southwest wind around 7 mph.
Tuesday
 
Sunny, with a high near 57. Southwest wind 6 to 14 mph.
Tuesday Night
 
A chance of rain, mainly after 1am. Mostly cloudy, with a low around 45. Southwest wind 7 to 11 mph. Chance of precipitation is 40%. New precipitation amounts of less than a tenth of an inch possible.
Wednesday
 
A slight chance of rain before 1pm. Mostly sunny, with a high near 52. Northwest wind 7 to 13 mph. Chance of precipitation is 20%.
Wednesday Night
 
Mostly clear, with a low around 31.
Thanksgiving Day
 
Mostly sunny, with a high near 46.
Thursday Night
 
Partly cloudy, with a low around 32.
Friday
 
Sunny, with a high near 49.
Friday Night
 
Partly cloudy, with a low around 35.
Saturday
 
A chance of showers. Partly sunny, with a high near 53. Chance of precipitation is 30%.
Saturday Night
 
Mostly cloudy, with a low around 39.
Sunday
 
Partly sunny, with a high near 47.

 

Forecast from NOAA-NWS for Philadelphia PA.

Area Weather Current Conditions
Nearby METAR Reports

KPHL - Philadelphia, Pennsylvania
Updated: Mon, 20-Nov-2017 5:54am EST
Few Clouds
Few Clouds
 Wind from W
Wind: W 15 mph , 24 km/h
Temperature: 37°F , 3°C
Wind Chill: 28°F , -2°C
Dew Point: 23°F , -5°C
Humidity: 56%
Barometer: 30.05 inHg , 1017.6 hPa
Clouds: Few Clouds
Visibility: 10 miles , 16 km
Cloud details: Few Clouds 6500 ft
2017/11/20 10:54 KPHL 201054Z 28013KT 10SM FEW065 03/M05 A3005 RMK AO2 SLP176 T00331050
KMPO - Mt. Pocono, Pennsylvania
Updated: Sun, 19-Nov-2017 3:53am EST
NOT Current
Mist, Overcast
Mist, Overcast
 Wind from SSW
Wind: SSW 17 mph , 28 km/h, Gust: 31 mph , 50 km/h
Temperature: 48°F , 9°C
Wind Chill: 42°F , 6°C
Dew Point: 48°F , 9°C
Humidity: 100%
Barometer: 29.21 inHg , 989.2 hPa
Summary: Mist
Clouds: Overcast
Visibility: 6 miles , 10 km
Cloud details: Overcast 200 ft
2017/11/19 08:53 KMPO 190853Z AUTO 21015G27KT 6SM BR OVC002 09/09 A2921 RMK AO2 PK WND 22033/0803 RAE18B37E48 SLP898 P0001 60007 T00940094 56027
 
KACY - Atlantic City, New Jersey
Updated: Mon, 20-Nov-2017 5:54am EST
Clear
Clear
 Wind from W
Wind: W 12 mph , 19 km/h
Temperature: 37°F , 3°C
Wind Chill: 29°F , -2°C
Dew Point: 27°F , -3°C
Humidity: 65%
Barometer: 30.04 inHg , 1017.3 hPa
Clouds: Clear
Visibility: 10 miles , 16 km
2017/11/20 10:54 KACY 201054Z 26010KT 10SM CLR 03/M03 A3004 RMK AO2 SLP173 T00331033 $
KMIV - Millville, New Jersey
Updated: Mon, 20-Nov-2017 5:54am EST
Clear
Clear
 Wind from W
Wind: W 16 mph , 26 km/h, Gust: 26 mph , 43 km/h
Temperature: 39°F , 4°C
Wind Chill: 30°F , -1°C
Dew Point: 25°F , -4°C
Humidity: 56%
Barometer: 30.06 inHg , 1017.9 hPa
Clouds: Clear
Visibility: 10 miles , 16 km
2017/11/20 10:54 KMIV 201054Z AUTO 28014G23KT 10SM CLR 04/M04 A3006 RMK AO2 SLP180 T00391044
 
KWWD - Wildwood, New Jersey
Updated: Tue, 14-Nov-2017 10:04pm EST
NOT Current
Overcast
Overcast
 Wind from N
Wind: N 7 mph , 11 km/h
Temperature: 43°F , 6°C
Wind Chill: 39°F , 4°C
Dew Point: 36°F , 2°C
Humidity: 76%
Barometer: 30.28 inHg , 1025.4 hPa
Clouds: Overcast
Visibility: 10 miles , 16 km
Cloud details: Mostly Cloudy 2800 ft
Overcast 3500 ft
2017/11/15 03:04 KWWD 150304Z AUTO 01006KT 10SM BKN028 OVC035 06/02 A3028 RMK AO2
KDOV - Dover Afb, Delaware
Updated: Mon, 20-Nov-2017 5:56am EST
Clear
Clear
 Wind from W
Wind: W 14 mph , 22 km/h, Gust: 22 mph , 35 km/h
Temperature: 37°F , 3°C
Wind Chill: 28°F , -2°C
Dew Point: 27°F , -3°C
Humidity: 65%
Barometer: 30.08 inHg , 1018.6 hPa
Clouds: Clear
Visibility: 10 miles , 16 km
2017/11/20 10:56 KDOV 201056Z AUTO 28012G19KT 10SM CLR 03/M03 A3008 RMK AO2 SLP189 T00321034 $
Severe Weather Map
Recent Forum Post
[Philadelphia] Request for Philly Snow Data by JC February 14, 2017, 08:42:21 PM
[Philadelphia] 2016 -2017 Winter snow forecast by JC December 01, 2016, 04:56:31 AM
[Philadelphia] Winter forecast 2016-2017 by xyonist November 30, 2016, 01:14:08 PM
[Philadelphia] 102.7 last Saturday by JC August 20, 2016, 03:26:22 AM
[Philadelphia] 2015 -2016 Winter snow forecast by JC April 19, 2016, 09:42:40 AM
[Philadelphia] Latest Models on Weekend Storm (Photos) by JC January 23, 2016, 12:01:03 PM
[Philadelphia] Possible large snow storm for end of week ? by JC January 21, 2016, 09:17:47 AM
[Philadelphia] El Nino! by vicente6 September 16, 2015, 01:57:08 AM